Terminal Aerodrome Forecast
Issued by NWS

Home | Current Version | Previous Version | Text Only | Print | Product List | Glossary On
Versions: 1 2 3 4 5 6 7 8 9 10 11 12 13 14 15
222
FTUS41 KBGM 252111 AAA
TAFITH
TAF AMD
KITH 252111Z 2521/2618 11010KT P6SM -SHRA BKN025 OVC100
     FM260000 14010KT P6SM -SHRA BKN015 OVC025
     FM260900 14004KT 5SM BR SCT005 OVC010
     FM261300 14004KT P6SM OVC015=

USA.gov is the U.S. government's official web portal to all federal, state and local government web resources and services.